Murrells Inlet, SC

11:00 AM EST on February 06, 2016 (GMT -0500)
Palm Bay | | Change Station
CLOSE
Current Station
Personal Weather Station
Location: Murrells Inlet, SC
Elevation: 18 ft
Nearby Weather Stations
Active Advisory: Flood Warning Active Notice: Public Information Statement

Elev 18 ft 33.57 °N, 79.05 °W | Updated 5 seconds ago

Overcast
Overcast
49.3 °F
Feels Like 49 °F
N
0.0
Wind Variable Wind from North
Gusts 2.0 mph

Today
High -- | Low -- °F
--% Chance of Precip.
Yesterday
High -- | Low -- °F
Precip. -- in
Pressure 30.43 in
Visibility 10.0 miles
Clouds Mostly Cloudy 7000 ft
Windchill 49 °F
Dew Point 35 °F
Humidity 57%
Rainfall 0.00 in
Snow Depth Not available.
7:09 AM 5:51 PM
Waning Crescent, 5% visible
METAR KMYR 061445Z 05009KT 10SM BKN070 07/M03 A3043
Pressure 30.43 in
Visibility 10.0 miles
Clouds Mostly Cloudy 7000 ft
Windchill 49 °F
Dew Point 35 °F
Humidity 57%
Rainfall 0.00 in
Snow Depth Not available.
7:09 AM 5:51 PM
Waning Crescent, 5% visible
METAR KMYR 061445Z 05009KT 10SM BKN070 07/M03 A3043

10-Day Weather Forecast

Almanac

Astronomy

Feb. 06, 2016 Rise Set
Actual Time
Civil Twilight
Nautical Twilight
Astronomical Twilight
Moon
Length of Visible Light
Length of Day
Tomorrow will be .
, % of the Moon is Illuminated

Today's Extremes

State Highs State Lows

Community

WunderPhotos

Upload Photos

1,890,987 photos uploaded!

WunderBlog® & News

Nearby

Air Quality

  Air Quality AQ Index Pollutant
Not available.

Snow Depth

Station Depth Elevation

Earthquake Activity

City Distance Mag. Time & Date
Minimum magnitude displayed is 2.5.

Coastal Water Temperatures

Place Temperature

Stations

Nearby Weather Stations

Station Location Temp. Windchill Dew Point Humidity Wind Precip. Elev Updated Type
                   

Watches & Warnings

Flood Warning
Issued: 10:23 AM EST Feb. 6, 2016 – National Weather Service

The Flood Warning continues for
the Santee river near Jamestown.
* At 9 am Saturday the stage was 12.7 feet.
* Flood stage is 10.0 feet.
* Minor flooding is occurring.
* Forecast, the river will continue rising to near 14.2 feet by
Monday evening. Additional rises may be possible thereafter.
* At 12.0 feet, several dirt logging roads are impassable.


Lat... Lon 3347 8002 3354 7998 3325 7937 3321 7938
          3320 7951 3329 7976